Time;durP1;ratioP1;P1;durP2;ratioP2;P2;SDS_P1;SDS_P2;PMS_P1;PMS_P2;Temp;Humidity;BMP_temperature;BMP_pressure;BME280_temperature;BME280_humidity;BME280_pressure;Samples;Min_cycle;Max_cycle;Signal;HPM_P1;HPM_P2
2023/09/26 04:35:24;;;;;;;1.65;0.77;;;;;;;;;;5068675;27;20445;-80
2023/09/26 04:37:50;;;;;;;1.77;0.80;;;;;;;;;;5079846;28;20427;-81
2023/09/26 04:40:17;;;;;;;1.05;0.57;;;;;;;;;;5071418;28;20479;-80
2023/09/26 04:42:49;;;;;;;1.60;1.05;;;;;;;;;;5073956;28;20051;-86
2023/09/26 04:45:15;;;;;;;0.60;0.50;;;;;;;;;;5074468;28;20044;-82
2023/09/26 04:47:41;;;;;;;2.47;1.58;;;;;;;;;;5072431;28;20059;-83
2023/09/26 04:50:07;;;;;;;1.00;0.85;;;;;;;;;;5073606;28;20035;-83
2023/09/26 04:52:33;;;;;;;3.58;1.27;;;;;;;;;;5078956;28;20824;-84
2023/09/26 04:54:59;;;;;;;1.90;0.80;;;;;;;;;;5078172;28;20070;-83
2023/09/26 04:57:24;;;;;;;5.60;1.45;;;;;;;;;;5074576;28;20389;-82
2023/09/26 04:59:50;;;;;;;1.20;0.98;;;;;;;;;;5075562;28;20025;-83
2023/09/26 05:02:15;;;;;;;1.27;1.10;;;;;;;;;;5076117;28;20107;-82
2023/09/26 05:04:41;;;;;;;1.45;1.05;;;;;;;;;;5072753;28;20147;-85
2023/09/26 05:07:10;;;;;;;1.92;1.33;;;;;;;;;;5067333;28;20028;-84
2023/09/26 05:09:37;;;;;;;1.73;1.33;;;;;;;;;;5072821;28;20036;-82
2023/09/26 05:12:02;;;;;;;10.27;1.25;;;;;;;;;;5077853;28;19920;-83
2023/09/26 05:14:28;;;;;;;1.40;0.88;;;;;;;;;;5072978;28;20026;-84
2023/09/26 05:16:53;;;;;;;2.63;1.25;;;;;;;;;;5075726;28;20468;-83
2023/09/26 05:19:19;;;;;;;1.17;1.00;;;;;;;;;;5074903;28;20749;-83
2023/09/26 05:21:44;;;;;;;0.50;0.50;;;;;;;;;;5075196;28;20051;-83
2023/09/26 05:24:10;;;;;;;7.70;1.30;;;;;;;;;;5071818;28;20423;-83
2023/09/26 05:26:35;;;;;;;1.70;1.33;;;;;;;;;;5075941;28;20391;-79
2023/09/26 05:29:01;;;;;;;1.02;0.93;;;;;;;;;;5072529;28;20029;-83
2023/09/26 05:31:30;;;;;;;9.93;1.55;;;;;;;;;;5073258;28;20473;-79
2023/09/26 05:33:56;;;;;;;6.75;0.90;;;;;;;;;;5061621;28;20095;-86
2023/09/26 05:36:23;;;;;;;0.82;0.80;;;;;;;;;;5077255;28;20032;-86
2023/09/26 05:38:48;;;;;;;1.70;0.95;;;;;;;;;;5073440;28;20099;-81
2023/09/26 05:41:13;;;;;;;3.58;0.85;;;;;;;;;;5068348;28;20120;-82
2023/09/26 05:43:39;;;;;;;1.35;1.17;;;;;;;;;;5075663;28;20021;-82
2023/09/26 05:46:05;;;;;;;1.38;0.82;;;;;;;;;;5061225;28;20024;-82
2023/09/26 05:48:30;;;;;;;6.07;1.50;;;;;;;;;;5056921;28;20496;-81
2023/09/26 05:51:00;;;;;;;4.40;1.67;;;;;;;;;;5055117;28;20488;-82
2023/09/26 05:53:25;;;;;;;7.72;1.88;;;;;;;;;;5058091;28;20380;-82
2023/09/26 05:55:52;;;;;;;2.35;1.10;;;;;;;;;;5055383;28;20103;-81
2023/09/26 05:58:19;;;;;;;0.60;0.60;;;;;;;;;;5058005;28;20026;-83
2023/09/26 06:00:46;;;;;;;4.53;0.80;;;;;;;;;;5057873;28;20389;-82
2023/09/26 06:03:12;;;;;;;3.33;1.98;;;;;;;;;;5061244;28;20098;-79
2023/09/26 06:05:38;;;;;;;1.30;1.02;;;;;;;;;;5054172;28;20116;-80
2023/09/26 06:08:03;;;;;;;0.93;0.88;;;;;;;;;;5059885;28;20029;-79
2023/09/26 06:10:29;;;;;;;2.40;1.10;;;;;;;;;;5057497;28;20103;-80
2023/09/26 06:12:55;;;;;;;7.85;1.10;;;;;;;;;;5056688;28;20017;-80
2023/09/26 06:15:21;;;;;;;0.73;0.60;;;;;;;;;;5043237;28;20477;-82
2023/09/26 06:17:46;;;;;;;0.98;0.85;;;;;;;;;;5050246;28;20035;-81
2023/09/26 06:20:12;;;;;;;3.83;1.30;;;;;;;;;;5047771;28;20358;-79
2023/09/26 06:22:37;;;;;;;1.35;1.00;;;;;;;;;;5048198;28;20024;-80
2023/09/26 06:25:04;;;;;;;1.20;0.98;;;;;;;;;;5049085;28;20033;-80
2023/09/26 06:27:33;;;;;;;1.02;0.93;;;;;;;;;;5049790;28;20115;-81
2023/09/26 06:29:59;;;;;;;6.28;1.70;;;;;;;;;;5051421;28;20035;-80
2023/09/26 06:32:24;;;;;;;1.45;1.13;;;;;;;;;;5050191;28;20912;-80
2023/09/26 06:34:50;;;;;;;2.97;1.25;;;;;;;;;;5045857;28;20388;-79
2023/09/26 06:37:15;;;;;;;1.23;0.90;;;;;;;;;;5046062;28;20048;-80
2023/09/26 06:39:41;;;;;;;0.60;0.60;;;;;;;;;;5050437;28;20025;-80
2023/09/26 06:42:06;;;;;;;2.15;1.17;;;;;;;;;;5045688;28;20080;-81
2023/09/26 06:44:32;;;;;;;1.10;1.00;;;;;;;;;;5045504;28;20053;-82
2023/09/26 06:46:57;;;;;;;1.52;1.00;;;;;;;;;;5051459;28;20028;-82
2023/09/26 06:49:22;;;;;;;1.77;1.15;;;;;;;;;;5053028;28;20035;-82
2023/09/26 06:51:48;;;;;;;2.38;1.10;;;;;;;;;;5047945;28;20493;-81
2023/09/26 06:54:13;;;;;;;1.00;0.70;;;;;;;;;;5057695;28;20033;-80
2023/09/26 06:56:39;;;;;;;2.05;0.98;;;;;;;;;;5051014;28;20033;-81
2023/09/26 06:59:04;;;;;;;1.77;1.13;;;;;;;;;;5055904;28;20052;-81
2023/09/26 07:01:30;;;;;;;2.90;1.40;;;;;;;;;;5056884;28;20036;-82
2023/09/26 07:03:55;;;;;;;1.15;1.00;;;;;;;;;;5053877;28;20048;-81
2023/09/26 07:06:20;;;;;;;2.88;1.63;;;;;;;;;;5054823;28;20060;-81
2023/09/26 07:08:46;;;;;;;0.68;0.63;;;;;;;;;;5057712;28;20074;-80
2023/09/26 07:11:12;;;;;;;2.58;1.58;;;;;;;;;;5052939;28;20024;-81
2023/09/26 07:13:39;;;;;;;1.92;1.00;;;;;;;;;;5065409;28;20037;-80
2023/09/26 07:16:05;;;;;;;2.47;1.75;;;;;;;;;;5051988;28;20025;-81
2023/09/26 07:18:32;;;;;;;0.98;0.82;;;;;;;;;;5051669;28;20124;-80
2023/09/26 07:21:05;;;;;;;7.20;1.73;;;;;;;;;;5050860;28;20028;-81
2023/09/26 07:23:39;;;;;;;1.25;1.15;;;;;;;;;;5056088;28;20026;-81
2023/09/26 07:26:13;;;;;;;6.75;1.00;;;;;;;;;;5054361;28;20033;-81
2023/09/26 07:28:45;;;;;;;1.75;0.95;;;;;;;;;;5065269;28;20021;-80
2023/09/26 07:31:15;;;;;;;1.67;1.20;;;;;;;;;;5051054;28;20036;-81
2023/09/26 07:33:41;;;;;;;0.70;0.70;;;;;;;;;;5049351;28;20489;-81
2023/09/26 07:36:07;;;;;;;1.48;1.20;;;;;;;;;;5054653;28;20031;-82
2023/09/26 07:38:33;;;;;;;1.70;1.13;;;;;;;;;;5055792;28;20424;-82
2023/09/26 07:40:59;;;;;;;1.58;1.15;;;;;;;;;;5052664;28;20116;-82
2023/09/26 07:43:29;;;;;;;1.48;0.93;;;;;;;;;;5056493;28;20037;-82
2023/09/26 07:45:57;;;;;;;;;;;;;;;;;;5062292;28;20040;-82
2023/09/26 07:48:23;;;;;;;2.58;1.15;;;;;;;;;;5049845;28;19931;-83
2023/09/26 07:50:49;;;;;;;1.85;1.02;;;;;;;;;;5056603;28;20039;-82
2023/09/26 07:53:15;;;;;;;1.88;0.85;;;;;;;;;;5051618;28;20033;-83
2023/09/26 07:55:40;;;;;;;6.32;1.95;;;;;;;;;;5062691;28;20024;-82
2023/09/26 07:58:06;;;;;;;1.30;0.73;;;;;;;;;;5050263;28;20480;-82
2023/09/26 08:00:31;;;;;;;0.98;0.68;;;;;;;;;;5047775;28;20029;-83
2023/09/26 08:02:57;;;;;;;1.65;1.00;;;;;;;;;;5051206;28;20488;-82
2023/09/26 08:05:22;;;;;;;5.65;1.30;;;;;;;;;;5055169;28;20541;-80
2023/09/26 08:07:48;;;;;;;0.80;0.80;;;;;;;;;;5049361;28;20033;-81
2023/09/26 08:10:13;;;;;;;1.23;0.93;;;;;;;;;;5055083;28;20021;-80
2023/09/26 08:12:41;;;;;;;2.20;1.23;;;;;;;;;;5046398;28;20036;-83
2023/09/26 08:15:07;;;;;;;5.32;1.85;;;;;;;;;;5058893;28;20058;-81
2023/09/26 08:17:34;;;;;;;1.75;1.15;;;;;;;;;;5049454;28;20028;-81
2023/09/26 08:20:00;;;;;;;1.70;0.85;;;;;;;;;;5056757;28;20087;-81
2023/09/26 08:22:25;;;;;;;3.15;1.60;;;;;;;;;;5054343;28;20476;-81
2023/09/26 08:24:51;;;;;;;5.60;0.85;;;;;;;;;;5050955;28;20480;-81
2023/09/26 08:27:17;;;;;;;0.93;0.88;;;;;;;;;;5055671;28;20091;-81
2023/09/26 08:29:42;;;;;;;1.70;1.05;;;;;;;;;;5068310;28;20025;-80
2023/09/26 08:32:09;;;;;;;0.93;0.82;;;;;;;;;;5058308;28;20529;-81
2023/09/26 08:34:34;;;;;;;4.28;1.42;;;;;;;;;;5057449;28;20040;-81
2023/09/26 08:37:00;;;;;;;2.00;1.15;;;;;;;;;;5050156;28;20029;-81
2023/09/26 08:39:25;;;;;;;11.95;1.42;;;;;;;;;;5051212;28;20029;-81
2023/09/26 08:41:51;;;;;;;7.88;1.05;;;;;;;;;;5054483;28;20029;-81
2023/09/26 08:44:17;;;;;;;1.35;0.98;;;;;;;;;;5057067;28;20029;-80
2023/09/26 08:46:44;;;;;;;2.40;1.13;;;;;;;;;;5057205;28;20116;-80
2023/09/26 08:49:10;;;;;;;1.63;1.08;;;;;;;;;;5041905;28;20508;-80
2023/09/26 08:51:36;;;;;;;1.33;1.23;;;;;;;;;;5050066;28;20029;-81
2023/09/26 08:54:02;;;;;;;1.42;1.13;;;;;;;;;;5050625;28;20021;-80
2023/09/26 08:56:28;;;;;;;1.92;1.35;;;;;;;;;;5051444;28;20032;-81
2023/09/26 08:58:55;;;;;;;2.72;1.50;;;;;;;;;;5050497;28;20071;-80
2023/09/26 09:01:24;;;;;;;1.27;1.15;;;;;;;;;;5051837;28;20032;-79
2023/09/26 09:03:49;;;;;;;5.00;0.95;;;;;;;;;;5058767;28;20028;-81
2023/09/26 09:06:15;;;;;;;2.17;1.55;;;;;;;;;;5055491;28;20041;-82
2023/09/26 09:08:40;;;;;;;2.40;1.40;;;;;;;;;;5053897;28;20424;-81
2023/09/26 09:11:06;;;;;;;5.82;1.40;;;;;;;;;;5058917;28;20114;-81
2023/09/26 09:13:33;;;;;;;6.78;1.10;;;;;;;;;;5056410;28;20024;-81
2023/09/26 09:16:15;;;;;;;3.38;1.17;;;;;;;;;;5055116;28;20033;-82
2023/09/26 09:18:47;;;;;;;2.30;1.35;;;;;;;;;;5056288;28;20548;-82
2023/09/26 09:21:25;;;;;;;3.60;1.38;;;;;;;;;;5052636;28;20382;-79
2023/09/26 09:23:55;;;;;;;2.33;1.50;;;;;;;;;;5059431;28;20028;-81
2023/09/26 09:26:22;;;;;;;7.55;1.77;;;;;;;;;;5051184;28;20504;-81
2023/09/26 09:28:50;;;;;;;2.58;1.27;;;;;;;;;;5053847;28;20541;-81
2023/09/26 09:31:16;;;;;;;2.55;0.90;;;;;;;;;;5055844;28;20104;-80
2023/09/26 09:33:55;;;;;;;1.80;0.95;;;;;;;;;;5052136;28;20049;-80
2023/09/26 09:36:20;;;;;;;2.20;1.02;;;;;;;;;;5062304;28;20039;-80
2023/09/26 09:38:46;;;;;;;2.72;1.95;;;;;;;;;;5046867;28;20037;-79
2023/09/26 09:41:11;;;;;;;4.30;1.45;;;;;;;;;;5046859;28;20029;-81
2023/09/26 09:43:40;;;;;;;2.35;1.38;;;;;;;;;;5051750;28;20021;-82
2023/09/26 09:46:10;;;;;;;3.65;1.30;;;;;;;;;;5053234;28;20106;-85
2023/09/26 09:48:39;;;;;;;;;;;;;;;;;;5055145;28;20038;-84
2023/09/26 09:51:09;;;;;;;5.32;1.23;;;;;;;;;;5061907;28;20418;-82
2023/09/26 09:53:35;;;;;;;2.70;0.75;;;;;;;;;;5048290;28;20030;-83
2023/09/26 09:56:05;;;;;;;2.33;1.08;;;;;;;;;;5062651;28;20094;-83
2023/09/26 09:58:33;;;;;;;1.98;1.20;;;;;;;;;;5048413;28;20052;-83
2023/09/26 10:01:00;;;;;;;1.33;1.00;;;;;;;;;;5053391;28;20476;-82
2023/09/26 10:03:26;;;;;;;2.63;1.25;;;;;;;;;;5060385;28;20114;-84
2023/09/26 10:05:52;;;;;;;0.75;0.70;;;;;;;;;;5060420;28;20196;-84
2023/09/26 10:08:19;;;;;;;2.20;1.30;;;;;;;;;;5059878;28;20060;-82
2023/09/26 10:10:45;;;;;;;2.13;1.05;;;;;;;;;;5062529;28;20533;-81
2023/09/26 10:13:11;;;;;;;2.78;1.17;;;;;;;;;;5048786;28;20059;-82
2023/09/26 10:16:11;;;;;;;1.30;0.77;;;;;;;;;;5060893;28;20037;-80
2023/09/26 10:18:41;;;;;;;1.17;1.02;;;;;;;;;;5052567;28;20503;-82
2023/09/26 10:21:40;;;;;;;1.23;1.13;;;;;;;;;;5059754;28;20092;-82
2023/09/26 10:24:08;;;;;;;1.45;1.35;;;;;;;;;;5038372;28;20033;-81
2023/09/26 10:26:38;;;;;;;3.78;1.42;;;;;;;;;;5051268;28;20060;-84
2023/09/26 10:29:22;;;;;;;1.42;0.82;;;;;;;;;;5053506;28;20487;-81
2023/09/26 10:31:53;;;;;;;3.90;0.98;;;;;;;;;;5055063;28;20446;-82
2023/09/26 10:34:29;;;;;;;5.43;1.23;;;;;;;;;;5046783;28;20060;-82
2023/09/26 10:36:56;;;;;;;1.35;1.15;;;;;;;;;;5065016;28;20043;-82
2023/09/26 10:39:41;;;;;;;8.73;1.25;;;;;;;;;;5062549;28;20054;-81
2023/09/26 10:42:16;;;;;;;1.75;1.02;;;;;;;;;;5057285;28;20092;-80
2023/09/26 10:44:43;;;;;;;4.55;0.93;;;;;;;;;;5059381;28;20024;-84
2023/09/26 10:47:12;;;;;;;5.13;1.40;;;;;;;;;;5060246;28;20454;-81
2023/09/26 10:49:37;;;;;;;0.75;0.75;;;;;;;;;;5063423;28;20410;-80
2023/09/26 10:52:07;;;;;;;1.65;0.95;;;;;;;;;;5059675;28;20028;-80
2023/09/26 10:54:34;;;;;;;4.25;1.60;;;;;;;;;;5054610;28;20029;-81
2023/09/26 10:57:00;;;;;;;5.13;1.08;;;;;;;;;;5057019;28;20086;-80
2023/09/26 10:59:27;;;;;;;1.50;1.27;;;;;;;;;;5056567;28;20025;-80
2023/09/26 11:02:00;;;;;;;1.95;1.02;;;;;;;;;;5052176;28;20032;-83
2023/09/26 11:04:31;;;;;;;1.83;1.20;;;;;;;;;;5061525;28;20465;-81
2023/09/26 11:07:01;;;;;;;1.40;0.93;;;;;;;;;;5061604;28;20040;-82
2023/09/26 11:09:26;;;;;;;;;;;;;;;;;;5057830;28;20025;-81
2023/09/26 11:11:55;;;;;;;1.77;1.08;;;;;;;;;;5059503;28;19936;-80
2023/09/26 11:14:22;;;;;;;3.35;1.60;;;;;;;;;;5056862;28;20725;-80
2023/09/26 11:16:48;;;;;;;4.47;1.05;;;;;;;;;;5059707;28;20496;-81
2023/09/26 11:19:13;;;;;;;0.82;0.73;;;;;;;;;;5055833;28;20033;-81
2023/09/26 11:21:39;;;;;;;2.47;1.00;;;;;;;;;;5054109;28;20115;-82
2023/09/26 11:24:29;;;;;;;2.10;1.15;;;;;;;;;;5056280;28;20040;-80
2023/09/26 11:27:01;;;;;;;1.00;0.90;;;;;;;;;;5057998;28;21834;-81
2023/09/26 11:29:27;;;;;;;2.72;1.17;;;;;;;;;;5055535;28;20029;-81
2023/09/26 11:31:53;;;;;;;1.60;1.27;;;;;;;;;;5058155;28;20028;-80
2023/09/26 11:34:22;;;;;;;5.00;1.25;;;;;;;;;;5054141;28;20423;-82
